Time;durP1;ratioP1;P1;durP2;ratioP2;P2;SDS_P1;SDS_P2;PMS_P1;PMS_P2;Temp;Humidity;BMP_temperature;BMP_pressure;BME280_temperature;BME280_humidity;BME280_pressure;Samples;Min_cycle;Max_cycle;Signal;HPM_P1;HPM_P2
2023/12/26 00:01:57;;;;;;;;;;;;;;;9.57;100.00;100533.28;5038875;28;19971;-80
2023/12/26 00:04:26;;;;;;;;;;;;;;;9.50;100.00;100529.00;5054706;28;20276;-78
2023/12/26 00:06:52;;;;;;;;;;;;;;;9.49;100.00;100522.88;5058129;28;19970;-78
2023/12/26 00:09:17;;;;;;;;;;;;;;;9.47;100.00;100519.44;5072719;28;19920;-79
2023/12/26 00:11:45;;;;;;;;;;;;;;;9.50;100.00;100519.38;5075595;28;19916;-79
2023/12/26 00:14:12;;;;;;;;;;;;;;;9.47;100.00;100521.19;5058545;28;19916;-80
2023/12/26 00:16:39;;;;;;;;;;;;;;;9.46;100.00;100529.91;5058820;28;20019;-82
2023/12/26 00:19:05;;;;;;;;;;;;;;;9.47;100.00;100518.56;5074091;28;19916;-78
2023/12/26 00:21:31;;;;;;;;;;;;;;;9.44;100.00;100521.19;5039806;28;19916;-78
2023/12/26 00:23:56;;;;;;;;;;;;;;;9.45;100.00;100528.16;5037328;28;19931;-79
2023/12/26 00:26:21;;;;;;;;;;;;;;;9.43;100.00;100522.97;5054330;28;19912;-78
2023/12/26 00:28:47;;;;;;;;;;;;;;;9.45;100.00;100520.31;5037759;28;19924;-79
2023/12/26 00:31:12;;;;;;;;;;;;;;;9.44;100.00;100524.69;5041370;28;19920;-79
2023/12/26 00:33:37;;;;;;;;;;;;;;;9.42;100.00;100530.84;5052012;28;20043;-78
2023/12/26 00:36:03;;;;;;;;;;;;;;;9.39;100.00;100523.88;5045265;28;20006;-80
2023/12/26 00:38:30;;;;;;;;;;;;;;;9.40;100.00;100524.75;5037043;28;20232;-79
2023/12/26 00:40:55;;;;;;;;;;;;;;;9.38;100.00;100523.91;5038235;28;19921;-80
2023/12/26 00:43:20;;;;;;;;;;;;;;;9.37;100.00;100525.66;5049454;28;19931;-80
2023/12/26 00:45:45;;;;;;;;;;;;;;;9.33;100.00;100532.66;5074696;28;19916;-80
2023/12/26 00:48:11;;;;;;;;;;;;;;;9.36;100.00;100527.38;5074391;28;19916;-84
2023/12/26 00:50:41;;;;;;;;;;;;;;;9.33;100.00;100537.03;5074156;28;19947;-83
2023/12/26 00:53:10;;;;;;;;;;;;;;;9.30;100.00;100537.94;5057644;28;19975;-82
2023/12/26 00:55:35;;;;;;;;;;;;;;;9.33;100.00;100537.88;5058228;28;20295;-82
2023/12/26 00:58:01;;;;;;;;;;;;;;;9.38;100.00;100534.34;5037587;28;19916;-83
2023/12/26 01:00:26;;;;;;;;;;;;;;;9.31;100.00;100546.63;5072334;28;20011;-82
2023/12/26 01:02:54;;;;;;;;;;;;;;;9.33;100.00;100542.25;5034741;28;20102;-81
2023/12/26 01:05:19;;;;;;;;;;;;;;;9.32;100.00;100548.38;5072213;28;19932;-85
2023/12/26 01:07:44;;;;;;;;;;;;;;;9.31;100.00;100554.47;5063980;28;19974;-82
2023/12/26 01:10:10;;;;;;;;;;;;;;;9.27;100.00;100553.66;5046892;28;19947;-81
2023/12/26 01:12:35;;;;;;;;;;;;;;;9.35;100.00;100553.56;5039922;28;19967;-83
2023/12/26 01:15:01;;;;;;;;;;;;;;;9.31;100.00;100547.50;5074155;28;19929;-81
2023/12/26 01:17:26;;;;;;;;;;;;;;;9.29;100.00;100540.56;5058714;28;19920;-79
2023/12/26 01:19:51;;;;;;;;;;;;;;;9.32;100.00;100551.00;5056006;28;19916;-78
2023/12/26 01:22:17;;;;;;;;;;;;;;;9.32;100.00;100558.84;5059620;28;19960;-81
2023/12/26 01:24:43;;;;;;;;;;;;;;;9.30;100.00;100553.63;5041731;28;20346;-83
2023/12/26 01:27:08;;;;;;;;;;;;;;;9.38;100.00;100558.78;5072346;28;20462;-80
2023/12/26 01:29:33;;;;;;;;;;;;;;;9.30;100.00;100569.31;5085607;28;19935;-81
2023/12/26 01:31:59;;;;;;;;;;;;;;;9.29;100.00;100562.34;5041918;28;19925;-82
2023/12/26 01:34:24;;;;;;;;;;;;;;;9.35;100.00;100556.19;5037257;28;19951;-83
2023/12/26 01:36:49;;;;;;;;;;;;;;;9.30;100.00;100568.47;5040477;28;20368;-83
2023/12/26 01:39:16;;;;;;;;;;;;;;;9.31;100.00;100565.81;5046295;28;19931;-81
2023/12/26 01:41:41;;;;;;;;;;;;;;;9.32;100.00;100569.28;5040583;28;20053;-82
2023/12/26 01:44:07;;;;;;;;;;;;;;;9.33;100.00;100576.25;5051812;28;20021;-83
2023/12/26 01:46:32;;;;;;;;;;;;;;;9.29;100.00;100575.41;5054530;28;20526;-83
2023/12/26 01:48:58;;;;;;;;;;;;;;;9.34;100.00;100575.38;5038662;28;19929;-84
2023/12/26 01:51:25;;;;;;;;;;;;;;;9.35;100.00;100577.97;5057212;28;19924;-83
2023/12/26 01:53:51;;;;;;;;;;;;;;;9.35;100.00;100592.78;5073378;28;19926;-83
2023/12/26 01:56:16;;;;;;;;;;;;;;;9.34;100.00;100597.16;5056884;28;20019;-82
2023/12/26 01:58:43;;;;;;;;;;;;;;;9.36;100.00;100591.91;5052950;28;19921;-83
2023/12/26 02:01:09;;;;;;;;;;;;;;;9.34;100.00;100594.53;5057758;28;19916;-83
2023/12/26 02:03:35;;;;;;;;;;;;;;;9.33;100.00;100605.88;5057197;28;20403;-84
2023/12/26 02:06:00;;;;;;;;;;;;;;;9.34;100.00;100601.53;5043009;28;19928;-84
2023/12/26 02:08:29;;;;;;;;;;;;;;;9.31;100.00;100602.44;5058272;28;19925;-83
2023/12/26 02:10:55;;;;;;;;;;;;;;;9.26;100.00;100596.38;5062400;28;19924;-83
2023/12/26 02:13:21;;;;;;;;;;;;;;;9.25;100.00;100602.50;5076394;28;19951;-83
2023/12/26 02:15:50;;;;;;;;;;;;;;;9.26;100.00;100598.13;5062536;28;19927;-85
2023/12/26 02:18:15;;;;;;;;;;;;;;;9.26;100.00;100596.38;5075232;28;19920;-80
2023/12/26 02:20:40;;;;;;;;;;;;;;;9.29;100.00;100600.72;5065142;28;19920;-79
2023/12/26 02:23:08;;;;;;;;;;;;;;;9.28;100.00;100597.25;5073547;28;19924;-80
2023/12/26 02:25:33;;;;;;;;;;;;;;;9.32;100.00;100600.66;5039177;28;19924;-81
2023/12/26 02:28:02;;;;;;;;;;;;;;;9.33;100.00;100605.88;5044103;28;19924;-78
2023/12/26 02:30:29;;;;;;;;;;;;;;;9.32;100.00;100612.00;5053169;28;19978;-78
2023/12/26 02:32:55;;;;;;;;;;;;;;;9.30;100.00;100610.28;5053010;28;19916;-79
2023/12/26 02:35:21;;;;;;;;;;;;;;;9.34;100.00;100606.78;5043599;28;19920;-77
2023/12/26 02:37:46;;;;;;;;;;;;;;;9.29;100.00;100612.03;5037104;28;20291;-78
2023/12/26 02:40:12;;;;;;;;;;;;;;;9.29;100.00;100609.41;5052405;28;19916;-78
2023/12/26 02:42:37;;;;;;;;;;;;;;;9.32;100.00;100614.63;5054553;28;19916;-77
2023/12/26 02:45:02;;;;;;;;;;;;;;;9.31;100.00;100612.88;5063226;28;20376;-77
2023/12/26 02:47:28;;;;;;;;;;;;;;;9.31;100.00;100612.88;5051672;28;19916;-79
2023/12/26 02:49:53;;;;;;;;;;;;;;;9.29;100.00;100606.78;5057289;28;19916;-78
2023/12/26 02:52:19;;;;;;;;;;;;;;;9.29;100.00;100611.16;5056779;28;19916;-77
2023/12/26 02:54:44;;;;;;;;;;;;;;;9.27;100.00;100616.41;5065856;28;19928;-78
2023/12/26 02:57:13;;;;;;;;;;;;;;;9.28;100.00;100612.03;5052589;28;20020;-77
2023/12/26 02:59:38;;;;;;;;;;;;;;;9.29;100.00;100611.16;5039854;28;19921;-82
2023/12/26 03:02:03;;;;;;;;;;;;;;;9.28;100.00;100615.53;5053640;28;20391;-84
2023/12/26 03:04:29;;;;;;;;;;;;;;;9.29;100.00;100627.72;5053669;28;19975;-83
2023/12/26 03:06:54;;;;;;;;;;;;;;;9.31;100.00;100615.50;5051144;28;20490;-83
2023/12/26 03:09:19;;;;;;;;;;;;;;;9.29;100.00;100642.53;5044456;28;20469;-82
2023/12/26 03:11:45;;;;;;;;;;;;;;;9.32;100.00;100647.75;5053424;28;19964;-81
2023/12/26 03:14:12;;;;;;;;;;;;;;;9.33;100.00;100658.19;5063205;28;19920;-80
2023/12/26 03:16:37;;;;;;;;;;;;;;;9.34;100.00;100662.53;5065775;28;19920;-86
2023/12/26 03:19:02;;;;;;;;;;;;;;;9.40;100.00;100671.22;5043629;28;19921;-79
2023/12/26 03:21:28;;;;;;;;;;;;;;;9.44;100.00;100670.28;5041217;28;19990;-84
2023/12/26 03:23:53;;;;;;;;;;;;;;;9.40;100.00;100652.91;5060696;28;19925;-81
2023/12/26 03:26:18;;;;;;;;;;;;;;;9.36;100.00;100658.16;5067129;28;19953;-81
2023/12/26 03:28:44;;;;;;;;;;;;;;;9.37;100.00;100672.09;5044713;28;20015;-81
2023/12/26 03:31:09;;;;;;;;;;;;;;;9.39;100.00;100669.47;5047623;28;19951;-80
2023/12/26 03:33:38;;;;;;;;;;;;;;;9.35;100.00;100664.28;5041592;28;20295;-80
2023/12/26 03:36:04;;;;;;;;;;;;;;;9.32;100.00;100672.16;5036713;28;20377;-78
2023/12/26 03:38:29;;;;;;;;;;;;;;;9.29;100.00;100679.16;5044540;28;19959;-81
2023/12/26 03:40:55;;;;;;;;;;;;;;;9.25;100.00;100667.88;5048980;28;20048;-78
2023/12/26 03:43:20;;;;;;;;;;;;;;;9.28;100.00;100662.59;5043726;28;19924;-76
2023/12/26 03:45:48;;;;;;;;;;;;;;;9.23;100.00;100677.47;5057887;28;19967;-78
2023/12/26 03:48:15;;;;;;;;;;;;;;;9.21;100.00;100665.28;5049561;28;20487;-78
2023/12/26 03:50:40;;;;;;;;;;;;;;;9.13;100.00;100670.56;5048717;28;20363;-76
2023/12/26 03:53:06;;;;;;;;;;;;;;;9.11;100.00;100675.81;5047622;28;19920;-77
2023/12/26 03:55:32;;;;;;;;;;;;;;;9.07;100.00;100676.72;5045533;28;20348;-77
2023/12/26 03:57:57;;;;;;;;;;;;;;;9.01;100.00;100685.47;5054294;28;20003;-77
2023/12/26 04:00:22;;;;;;;;;;;;;;;9.04;100.00;100683.72;5047330;28;19920;-79
2023/12/26 04:02:48;;;;;;;;;;;;;;;9.00;100.00;100677.66;5074719;28;19916;-78
2023/12/26 04:05:14;;;;;;;;;;;;;;;9.04;100.00;100687.22;5049283;28;19924;-78
2023/12/26 04:07:39;;;;;;;;;;;;;;;8.99;100.00;100697.72;5069739;28;19930;-75
2023/12/26 04:10:05;;;;;;;;;;;;;;;8.98;100.00;100697.72;5082871;28;19923;-78
2023/12/26 04:12:32;;;;;;;;;;;;;;;9.01;100.00;100698.53;5038469;28;19929;-79
2023/12/26 04:14:57;;;;;;;;;;;;;;;8.99;100.00;100715.13;5038327;28;20066;-78
2023/12/26 04:17:22;;;;;;;;;;;;;;;9.06;100.00;100714.19;5040902;28;20010;-80
2023/12/26 04:19:50;;;;;;;;;;;;;;;9.04;100.00;100712.47;5067782;28;20401;-80
2023/12/26 04:22:17;;;;;;;;;;;;;;;9.02;100.00;100715.97;5045526;28;19928;-76
2023/12/26 04:24:43;;;;;;;;;;;;;;;9.00;100.00;100703.78;5059933;28;20395;-78
2023/12/26 04:27:08;;;;;;;;;;;;;;;8.96;100.00;100710.78;5064517;28;19964;-81
2023/12/26 04:29:34;;;;;;;;;;;;;;;8.92;100.00;100709.09;5043906;28;19924;-79
2023/12/26 04:31:59;;;;;;;;;;;;;;;8.92;100.00;100730.00;5054145;28;19967;-76
2023/12/26 04:34:25;;;;;;;;;;;;;;;8.95;100.00;100737.81;5038135;28;19924;-78
2023/12/26 04:36:50;;;;;;;;;;;;;;;8.98;100.00;100745.63;5063617;28;19924;-78
2023/12/26 04:39:16;;;;;;;;;;;;;;;8.93;100.00;100738.69;5061196;28;19919;-80
2023/12/26 04:41:42;;;;;;;;;;;;;;;8.97;100.00;100743.88;5063997;28;20019;-76
2023/12/26 04:44:07;;;;;;;;;;;;;;;9.02;100.00;100752.56;5042159;28;19916;-76
2023/12/26 04:46:33;;;;;;;;;;;;;;;9.04;100.00;100744.72;5051638;28;20236;-77
2023/12/26 04:48:58;;;;;;;;;;;;;;;9.04;100.00;100746.44;5057553;28;20333;-78
2023/12/26 04:51:25;;;;;;;;;;;;;;;9.08;100.00;100750.78;5044720;28;20378;-77
2023/12/26 04:53:51;;;;;;;;;;;;;;;9.11;100.00;100763.84;5070983;28;20023;-77
2023/12/26 04:56:17;;;;;;;;;;;;;;;9.04;100.00;100764.72;5081232;28;19948;-76
2023/12/26 04:58:43;;;;;;;;;;;;;;;9.12;100.00;100750.75;5066352;28;20333;-76
2023/12/26 05:01:09;;;;;;;;;;;;;;;9.06;100.00;100758.63;5062330;28;20328;-76
2023/12/26 05:03:34;;;;;;;;;;;;;;;8.91;100.00;100777.91;5054638;28;19929;-77
2023/12/26 05:05:59;;;;;;;;;;;;;;;8.89;100.00;100787.47;5057050;28;19929;-76
2023/12/26 05:08:25;;;;;;;;;;;;;;;8.92;100.00;100794.44;5067540;28;19920;-76
2023/12/26 05:10:50;;;;;;;;;;;;;;;8.81;100.00;100800.59;5054368;28;19924;-79
2023/12/26 05:13:16;;;;;;;;;;;;;;;8.77;100.00;100804.09;5041650;28;19931;-78
2023/12/26 05:15:41;;;;;;;;;;;;;;;8.81;100.00;100799.75;5044160;28;19928;-76
2023/12/26 05:18:06;;;;;;;;;;;;;;;8.74;100.00;100811.94;5044226;28;19924;-80
2023/12/26 05:20:32;;;;;;;;;;;;;;;8.70;100.00;100818.06;5039160;28;19921;-78
2023/12/26 05:22:57;;;;;;;;;;;;;;;8.64;100.00;100807.66;5050115;28;19983;-79
2023/12/26 05:25:24;;;;;;;;;;;;;;;8.57;100.00;100822.47;5051640;28;20428;-79
2023/12/26 05:27:50;;;;;;;;;;;;;;;8.53;100.00;100825.09;5065905;28;19928;-80
2023/12/26 05:30:15;;;;;;;;;;;;;;;8.50;100.00;100825.97;5053397;28;20018;-80
2023/12/26 05:32:44;;;;;;;;;;;;;;;8.51;100.00;100832.94;5039408;28;20383;-77
2023/12/26 05:35:09;;;;;;;;;;;;;;;8.48;100.00;100843.41;5051723;28;19959;-76
2023/12/26 05:37:34;;;;;;;;;;;;;;;8.45;100.00;100840.81;5072605;28;19956;-77
2023/12/26 05:40:01;;;;;;;;;;;;;;;8.52;100.00;100839.91;5039689;28;19928;-76
2023/12/26 05:42:26;;;;;;;;;;;;;;;8.43;100.00;100856.47;5074364;28;19924;-77
2023/12/26 05:44:52;;;;;;;;;;;;;;;8.51;100.00;100852.97;5068312;28;19966;-76
2023/12/26 05:47:20;;;;;;;;;;;;;;;8.47;100.00;100858.19;5053009;28;19927;-77
2023/12/26 05:49:45;;;;;;;;;;;;;;;8.44;100.00;100879.09;5061314;28;19920;-77
2023/12/26 05:52:11;;;;;;;;;;;;;;;8.46;100.00;100871.25;5053881;28;19921;-80
2023/12/26 05:54:36;;;;;;;;;;;;;;;8.43;100.00;100882.56;5067854;28;19924;-79
2023/12/26 05:57:02;;;;;;;;;;;;;;;8.48;100.00;100890.41;5037164;28;19960;-78
2023/12/26 05:59:29;;;;;;;;;;;;;;;8.47;100.00;100886.91;5034035;28;19923;-83
2023/12/26 06:01:55;;;;;;;;;;;;;;;8.43;100.00;100897.34;5053197;28;20372;-78
2023/12/26 06:04:22;;;;;;;;;;;;;;;8.47;100.00;100899.97;5056861;28;19927;-81
2023/12/26 06:06:48;;;;;;;;;;;;;;;8.40;100.00;100908.66;5059431;28;19925;-78
2023/12/26 06:09:15;;;;;;;;;;;;;;;8.33;100.00;100902.59;5096138;22;19924;-76
2023/12/26 06:11:41;;;;;;;;;;;;;;;8.32;100.00;100916.50;5040882;28;19928;-76
2023/12/26 06:14:07;;;;;;;;;;;;;;;8.29;100.00;100919.13;5065841;28;19936;-77
2023/12/26 06:16:34;;;;;;;;;;;;;;;8.22;100.00;100909.56;5108603;22;19920;-77
2023/12/26 06:19:00;;;;;;;;;;;;;;;8.15;100.00;100919.13;5024332;28;19925;-78
2023/12/26 06:21:27;;;;;;;;;;;;;;;8.12;100.00;100936.56;5086386;22;19924;-76
2023/12/26 06:23:56;;;;;;;;;;;;;;;8.05;100.00;100940.03;5077049;28;19946;-76
2023/12/26 06:26:21;;;;;;;;;;;;;;;7.95;100.00;100950.44;5071252;28;19924;-76
2023/12/26 06:28:46;;;;;;;;;;;;;;;7.90;100.00;100954.81;5088921;28;19969;-76
2023/12/26 06:31:13;;;;;;;;;;;;;;;7.91;100.00;100945.25;5069948;28;20362;-76
2023/12/26 06:33:40;;;;;;;;;;;;;;;7.81;100.00;100952.19;5049079;28;20002;-76
2023/12/26 06:36:06;;;;;;;;;;;;;;;7.83;100.00;100957.41;5064890;28;19924;-76
2023/12/26 06:38:31;;;;;;;;;;;;;;;7.76;100.00;100962.63;5055257;28;19924;-76
2023/12/26 06:40:56;;;;;;;;;;;;;;;7.68;100.00;100963.47;5056722;28;20390;-76
2023/12/26 06:43:22;;;;;;;;;;;;;;;7.66;100.00;100963.47;5074347;28;19932;-75
2023/12/26 06:45:47;;;;;;;;;;;;;;;7.59;100.00;100977.34;5051603;28;19920;-76
2023/12/26 06:48:12;;;;;;;;;;;;;;;7.59;100.00;100975.63;5031522;28;20429;-75
2023/12/26 06:50:38;;;;;;;;;;;;;;;7.48;100.00;100979.91;5049551;28;20453;-76
2023/12/26 06:53:03;;;;;;;;;;;;;;;7.43;100.00;100981.66;5061372;28;20341;-75
2023/12/26 06:55:29;;;;;;;;;;;;;;;7.36;100.00;100993.78;5045084;28;19920;-76
2023/12/26 06:57:58;;;;;;;;;;;;;;;7.25;100.00;100996.34;5062755;28;20002;-76
2023/12/26 07:00:24;;;;;;;;;;;;;;;7.18;100.00;101002.38;5055866;28;19920;-76
2023/12/26 07:02:49;;;;;;;;;;;;;;;7.13;100.00;100996.31;5059280;28;19950;-76
2023/12/26 07:05:15;;;;;;;;;;;;;;;7.05;100.00;101004.09;5062332;28;19959;-79
2023/12/26 07:07:40;;;;;;;;;;;;;;;7.02;100.00;101003.19;5032649;28;19932;-79
2023/12/26 07:10:06;;;;;;;;;;;;;;;6.99;100.00;101013.59;5078483;28;20372;-78
2023/12/26 07:12:32;;;;;;;;;;;;;;;6.97;100.00;101020.53;5053718;28;20070;-79
2023/12/26 07:14:57;;;;;;;;;;;;;;;6.90;100.00;101025.69;5059354;28;19996;-78
2023/12/26 07:17:23;;;;;;;;;;;;;;;6.86;100.00;101043.91;5030317;28;19925;-78
2023/12/26 07:19:49;;;;;;;;;;;;;;;6.83;100.00;101060.38;5035328;28;19920;-79
2023/12/26 07:22:15;;;;;;;;;;;;;;;6.80;100.00;101064.72;5056448;28;19924;-78
2023/12/26 07:24:40;;;;;;;;;;;;;;;6.73;100.00;101064.66;5033909;28;20015;-78
2023/12/26 07:27:05;;;;;;;;;;;;;;;6.69;100.00;101062.00;5055543;28;19976;-79
2023/12/26 07:29:31;;;;;;;;;;;;;;;6.63;100.00;101072.41;5059015;28;20410;-78
2023/12/26 07:31:56;;;;;;;;;;;;;;;6.54;100.00;101074.06;5029868;28;19921;-79
2023/12/26 07:34:21;;;;;;;;;;;;;;;6.49;100.00;101080.94;5044204;28;19920;-78
2023/12/26 07:36:47;;;;;;;;;;;;;;;6.48;100.00;101092.22;5067540;28;20008;-78
2023/12/26 07:39:12;;;;;;;;;;;;;;;6.43;100.00;101090.44;5055163;28;19925;-79
2023/12/26 07:41:38;;;;;;;;;;;;;;;6.44;100.00;101092.16;5059166;28;20335;-79
2023/12/26 07:44:07;;;;;;;;;;;;;;;6.43;100.00;101088.69;5059376;28;19921;-75
2023/12/26 07:46:33;;;;;;;;;;;;;;;6.48;100.00;101093.94;5072400;28;20272;-75
2023/12/26 07:48:58;;;;;;;;;;;;;;;6.52;100.00;101096.63;5055782;28;20214;-75
2023/12/26 07:51:24;;;;;;;;;;;;;;;6.55;100.00;101090.53;5058182;28;20257;-75
2023/12/26 07:53:49;;;;;;;;;;;;;;;6.56;100.00;101087.94;5058892;28;19939;-75
2023/12/26 07:56:18;;;;;;;;;;;;;;;6.64;100.00;101089.75;5060609;28;20018;-79
2023/12/26 07:58:43;;;;;;;;;;;;;;;6.66;100.00;101098.47;5059501;28;20241;-78
2023/12/26 08:01:08;;;;;;;;;;;;;;;6.68;100.00;101113.25;5037489;28;19931;-78
2023/12/26 08:03:34;;;;;;;;;;;;;;;6.68;100.00;101109.75;5060511;28;20330;-78
2023/12/26 08:05:59;;;;;;;;;;;;;;;6.69;100.00;101124.53;5066990;28;20107;-81
2023/12/26 08:08:24;;;;;;;;;;;;;;;6.71;100.00;101133.22;5058705;28;19983;-79
2023/12/26 08:10:49;;;;;;;;;;;;;;;6.75;100.00;101130.66;5046920;28;19921;-80
2023/12/26 08:13:15;;;;;;;;;;;;;;;6.80;100.00;101143.72;5052092;28;20085;-79
2023/12/26 08:15:40;;;;;;;;;;;;;;;6.82;100.00;101142.00;5049571;28;20148;-78
2023/12/26 08:18:08;;;;;;;;;;;;;;;6.84;100.00;101150.72;5035969;28;19921;-79
2023/12/26 08:20:34;;;;;;;;;;;;;;;6.85;100.00;101152.47;5053587;28;19916;-79
2023/12/26 08:23:00;;;;;;;;;;;;;;;6.84;100.00;101155.03;5040799;28;19924;-78
2023/12/26 08:25:29;;;;;;;;;;;;;;;6.84;100.00;101152.41;5049901;28;19928;-75
2023/12/26 08:27:54;;;;;;;;;;;;;;;6.86;100.00;101154.19;5038152;28;19916;-75
2023/12/26 08:30:20;;;;;;;;;;;;;;;6.84;100.00;101165.44;5053794;28;20276;-76
2023/12/26 08:32:46;;;;;;;;;;;;;;;6.82;100.00;101178.47;5056173;28;19991;-75
2023/12/26 08:35:12;;;;;;;;;;;;;;;6.91;100.00;101172.44;5058531;28;19921;-76
2023/12/26 08:37:37;;;;;;;;;;;;;;;6.87;100.00;101182.00;5064299;28;19924;-76
2023/12/26 08:40:03;;;;;;;;;;;;;;;6.91;100.00;101183.75;5060116;28;19966;-79
2023/12/26 08:42:28;;;;;;;;;;;;;;;6.96;100.00;101175.13;5056349;28;19969;-77
2023/12/26 08:44:54;;;;;;;;;;;;;;;6.93;100.00;101184.63;5054881;28;19951;-79
2023/12/26 08:47:19;;;;;;;;;;;;;;;7.00;100.00;101192.53;5044339;28;20343;-79
2023/12/26 08:49:44;;;;;;;;;;;;;;;6.99;100.00;101191.63;5037791;28;19925;-79
2023/12/26 08:52:09;;;;;;;;;;;;;;;7.00;100.00;101203.81;5039656;28;19990;-78
2023/12/26 08:54:35;;;;;;;;;;;;;;;7.00;100.00;101219.44;5028674;28;20394;-76
2023/12/26 08:57:00;;;;;;;;;;;;;;;7.09;100.00;101218.66;5063472;28;19926;-76
2023/12/26 08:59:26;;;;;;;;;;;;;;;7.09;100.00;101227.34;5046121;28;20287;-75
2023/12/26 09:01:53;;;;;;;;;;;;;;;7.21;100.00;101233.53;5045033;28;19916;-75
2023/12/26 09:04:18;;;;;;;;;;;;;;;7.23;100.00;101235.28;5037656;28;19964;-75
2023/12/26 09:06:44;;;;;;;;;;;;;;;7.36;100.00;101233.66;5032852;28;20163;-76
2023/12/26 09:09:09;;;;;;;;;;;;;;;7.57;100.00;101227.72;5052126;28;19928;-75
2023/12/26 09:11:34;;;;;;;;;;;;;;;7.85;100.00;101237.47;5059847;28;19935;-79
2023/12/26 09:14:00;;;;;;;;;;;;;;;8.13;100.00;101231.53;5061383;28;19930;-80
2023/12/26 09:16:28;;;;;;;;;;;;;;;8.47;100.00;101244.72;5050902;28;20295;-77
2023/12/26 09:18:53;;;;;;;;;;;;;;;8.75;100.00;101252.66;5055512;28;19932;-76
2023/12/26 09:21:19;;;;;;;;;;;;;;;9.01;100.00;101251.84;5045657;28;19917;-76
2023/12/26 09:23:44;;;;;;;;;;;;;;;9.23;100.00;101257.94;5053256;28;19920;-78
2023/12/26 09:26:10;;;;;;;;;;;;;;;9.36;100.00;101267.53;5063452;28;19920;-81
2023/12/26 09:28:40;;;;;;;;;;;;;;;9.51;99.18;101278.88;5055497;28;19920;-82
2023/12/26 09:31:06;;;;;;;;;;;;;;;10.02;96.18;101277.03;5071640;28;19940;-80
2023/12/26 09:33:36;;;;;;;;;;;;;;;9.97;96.57;101276.22;5060938;28;20279;-75
2023/12/26 09:36:02;;;;;;;;;;;;;;;10.34;96.11;101276.13;5048884;28;20372;-76
2023/12/26 09:38:27;;;;;;;;;;;;;;;11.03;89.27;101289.75;5063654;28;19931;-77
2023/12/26 09:40:53;;;;;;;;;;;;;;;11.05;92.04;101281.00;5056153;28;19936;-77
2023/12/26 09:43:19;;;;;;;;;;;;;;;10.80;89.33;101287.25;5065161;28;19921;-81
2023/12/26 09:45:44;;;;;;;;;;;;;;;10.47;91.71;101299.66;5058619;28;19924;-76
2023/12/26 09:48:11;;;;;;;;;;;;;;;10.08;94.99;101317.19;5071450;28;20445;-75
2023/12/26 09:50:39;;;;;;;;;;;;;;;9.66;95.15;101312.88;5055259;28;19916;-76
2023/12/26 09:53:07;;;;;;;;;;;;;;;9.40;99.47;101317.25;5052362;28;19969;-75
2023/12/26 09:55:32;;;;;;;;;;;;;;;9.13;99.64;101322.44;5068145;28;19916;-77
2023/12/26 09:57:58;;;;;;;;;;;;;;;8.87;98.77;101327.59;5058706;28;19928;-78
2023/12/26 10:00:24;;;;;;;;;;;;;;;8.90;99.26;101318.91;5069326;28;19920;-76
2023/12/26 10:02:52;;;;;;;;;;;;;;;9.27;98.59;101332.06;5069444;28;19927;-76
2023/12/26 10:05:17;;;;;;;;;;;;;;;9.97;98.14;101340.75;5048181;28;19924;-76
2023/12/26 10:07:42;;;;;;;;;;;;;;;11.50;88.04;101361.16;5024890;28;20435;-76
2023/12/26 10:10:11;;;;;;;;;;;;;;;13.27;82.61;101375.03;5061647;28;20062;-77
2023/12/26 10:12:36;;;;;;;;;;;;;;;15.09;78.63;101381.47;5047790;28;19916;-76
2023/12/26 10:15:02;;;;;;;;;;;;;;;16.24;78.03;101388.41;5073900;28;19916;-76
2023/12/26 10:17:28;;;;;;;;;;;;;;;17.24;69.18;101387.38;5074488;28;20010;-77
2023/12/26 10:20:00;;;;;;;;;;;;;;;17.33;69.81;101382.69;5082844;28;20007;-79
2023/12/26 10:22:25;;;;;;;;;;;;;;;17.38;67.53;101386.91;5048169;28;19928;-77
2023/12/26 10:24:51;;;;;;;;;;;;;;;18.15;69.74;101383.56;5058968;28;20394;-77
2023/12/26 10:27:16;;;;;;;;;;;;;;;18.84;66.56;101382.84;5062023;28;20062;-82
2023/12/26 10:30:03;;;;;;;;;;;;;;;19.32;60.84;101373.03;5069527;28;19920;-79
2023/12/26 10:32:29;;;;;;;;;;;;;;;19.74;56.61;101375.75;5072810;28;19916;-77
2023/12/26 10:34:54;;;;;;;;;;;;;;;20.46;65.27;101375.38;5056986;28;20517;-80
2023/12/26 10:37:23;;;;;;;;;;;;;;;20.53;52.86;101371.50;5049476;28;19924;-83
2023/12/26 10:39:50;;;;;;;;;;;;;;;21.14;60.20;101374.97;5052925;28;19917;-81
2023/12/26 10:42:17;;;;;;;;;;;;;;;21.55;57.88;101381.00;5051617;28;19928;-81
2023/12/26 10:45:04;;;;;;;;;;;;;;;21.48;61.64;101373.31;5066779;28;20690;-81
2023/12/26 10:47:30;;;;;;;;;;;;;;;21.01;57.66;101380.88;5051968;28;19920;-79
2023/12/26 10:49:59;;;;;;;;;;;;;;;20.95;57.48;101378.50;5061726;28;19913;-80
2023/12/26 10:52:25;;;;;;;;;;;;;;;21.36;62.47;101382.78;5043784;28;20360;-82
2023/12/26 10:54:51;;;;;;;;;;;;;;;21.24;53.58;101386.91;5036468;28;20006;-82
2023/12/26 10:57:17;;;;;;;;;;;;;;;20.99;53.98;101387.19;5062328;28;20006;-82
2023/12/26 13:53:44;;;;;;;;;;;;;;;8.44;89.75;101559.84;5070897;28;20425;-79
2023/12/26 13:56:28;;;;;;;;;;;;;;;8.43;89.96;101573.75;5053865;28;19946;-81
2023/12/26 13:59:12;;;;;;;;;;;;;;;8.44;89.59;101580.75;5053537;28;20369;-79
2023/12/26 14:01:56;;;;;;;;;;;;;;;8.38;89.32;101572.88;5053599;28;19916;-79
2023/12/26 14:04:40;;;;;;;;;;;;;;;8.36;89.84;101567.63;5053218;28;20380;-77
2023/12/26 14:07:24;;;;;;;;;;;;;;;8.36;88.61;101570.25;5053950;28;19916;-80
2023/12/26 14:10:08;;;;;;;;;;;;;;;8.36;87.97;101582.41;5052674;28;19912;-79
2023/12/26 14:12:52;;;;;;;;;;;;;;;8.38;87.21;101593.75;5054155;28;20010;-76
2023/12/26 14:15:36;;;;;;;;;;;;;;;8.32;87.46;101585.00;5053644;28;19924;-78
2023/12/26 14:18:20;;;;;;;;;;;;;;;8.31;88.08;101592.81;5053552;28;20387;-81
2023/12/26 14:21:05;;;;;;;;;;;;;;;8.22;88.93;101598.81;5071164;28;19966;-79
2023/12/26 14:23:49;;;;;;;;;;;;;;;8.14;89.85;101603.94;5052102;28;19925;-79
2023/12/26 14:26:34;;;;;;;;;;;;;;;8.08;90.09;101603.88;5053654;28;19922;-76
2023/12/26 14:29:19;;;;;;;;;;;;;;;8.04;90.51;101609.94;5053388;28;20339;-79
2023/12/26 14:32:04;;;;;;;;;;;;;;;8.04;90.60;101611.69;5043707;28;20285;-79
2023/12/26 14:34:48;;;;;;;;;;;;;;;8.04;90.73;101624.72;5039690;28;20007;-77
2023/12/26 14:37:32;;;;;;;;;;;;;;;7.98;91.30;101631.63;5053338;28;19913;-76
2023/12/26 14:40:16;;;;;;;;;;;;;;;7.98;90.42;101636.84;5052571;28;19962;-75
2023/12/26 14:43:00;;;;;;;;;;;;;;;8.04;90.79;101635.16;5053500;28;19955;-76
2023/12/26 14:45:44;;;;;;;;;;;;;;;7.97;90.45;101645.56;5045722;28;20360;-78
2023/12/26 14:48:29;;;;;;;;;;;;;;;7.97;90.92;101652.47;5068159;28;19927;-79
2023/12/26 14:51:13;;;;;;;;;;;;;;;7.96;91.00;101649.00;5057570;28;19912;-77
2023/12/26 14:53:57;;;;;;;;;;;;;;;7.93;91.55;101654.19;5055732;28;20036;-79
2023/12/26 14:56:41;;;;;;;;;;;;;;;7.99;91.17;101658.63;5056187;28;20006;-77
2023/12/26 14:59:25;;;;;;;;;;;;;;;7.94;89.09;101671.63;5033098;28;19996;-77
2023/12/26 15:02:01;;;;;;;;;;;;;;;7.88;90.08;101671.53;5043850;28;19963;-73
2023/12/26 15:04:27;;;;;;;;;;;;;;;7.84;89.54;101680.16;5053977;28;19917;-75
2023/12/26 15:06:53;;;;;;;;;;;;;;;7.85;89.46;101679.31;5020394;28;19943;-74
2023/12/26 15:09:19;;;;;;;;;;;;;;;7.78;89.13;101680.94;5069193;28;19916;-75
2023/12/26 15:11:44;;;;;;;;;;;;;;;7.75;89.31;101685.28;5040052;28;19927;-75
2023/12/26 15:14:10;;;;;;;;;;;;;;;7.75;89.27;101680.06;5038970;28;19952;-74
2023/12/26 15:16:36;;;;;;;;;;;;;;;7.73;89.08;101680.03;5051335;28;19927;-74
2023/12/26 15:19:02;;;;;;;;;;;;;;;7.72;88.49;101672.19;5013789;28;19917;-75
2023/12/26 15:21:28;;;;;;;;;;;;;;;7.69;88.50;101672.16;5031908;28;19921;-74
2023/12/26 15:23:53;;;;;;;;;;;;;;;7.67;89.48;101676.47;5034855;28;19964;-75
2023/12/26 15:26:19;;;;;;;;;;;;;;;7.63;89.46;101671.19;5020396;28;19952;-74
2023/12/26 15:28:44;;;;;;;;;;;;;;;7.60;89.80;101683.31;5019593;28;19925;-74
2023/12/26 15:31:15;;;;;;;;;;;;;;;7.58;89.44;101680.69;5052612;28;20300;-74
2023/12/26 15:33:42;;;;;;;;;;;;;;;7.57;89.68;101692.00;5036019;28;19917;-75